sensor_id;sensor_type;location;lat;lon;timestamp;P1;durP1;ratioP1;P2;durP2;ratioP2
27275;SDS011;14772;47.398;8.080;2022-11-23T00:01:10;8.57;;;2.10;;
27275;SDS011;14772;47.398;8.080;2022-11-23T00:06:11;8.43;;;2.23;;
27275;SDS011;14772;47.398;8.080;2022-11-23T00:11:09;14.67;;;2.87;;
27275;SDS011;14772;47.398;8.080;2022-11-23T00:16:06;8.53;;;2.20;;
27275;SDS011;14772;47.398;8.080;2022-11-23T00:21:06;9.70;;;3.03;;
27275;SDS011;14772;47.398;8.080;2022-11-23T00:26:04;11.30;;;3.20;;
27275;SDS011;14772;47.398;8.080;2022-11-23T00:31:02;8.63;;;2.20;;
27275;SDS011;14772;47.398;8.080;2022-11-23T00:36:00;10.13;;;2.50;;
27275;SDS011;14772;47.398;8.080;2022-11-23T00:40:59;9.70;;;2.30;;
27275;SDS011;14772;47.398;8.080;2022-11-23T00:46:04;9.00;;;2.50;;
27275;SDS011;14772;47.398;8.080;2022-11-23T00:51:03;7.43;;;2.30;;
27275;SDS011;14772;47.398;8.080;2022-11-23T00:56:02;12.57;;;2.43;;
27275;SDS011;14772;47.398;8.080;2022-11-23T01:01:10;8.20;;;2.20;;
27275;SDS011;14772;47.398;8.080;2022-11-23T01:06:09;8.70;;;2.40;;
27275;SDS011;14772;47.398;8.080;2022-11-23T01:11:08;7.57;;;2.30;;
27275;SDS011;14772;47.398;8.080;2022-11-23T01:16:08;11.73;;;2.53;;
27275;SDS011;14772;47.398;8.080;2022-11-23T01:21:07;10.27;;;2.50;;
27275;SDS011;14772;47.398;8.080;2022-11-23T01:26:05;10.53;;;2.50;;
27275;SDS011;14772;47.398;8.080;2022-11-23T01:31:04;9.13;;;2.30;;
27275;SDS011;14772;47.398;8.080;2022-11-23T01:36:08;11.97;;;2.90;;
27275;SDS011;14772;47.398;8.080;2022-11-23T01:41:07;11.00;;;2.50;;
27275;SDS011;14772;47.398;8.080;2022-11-23T01:46:06;7.60;;;2.33;;
27275;SDS011;14772;47.398;8.080;2022-11-23T01:51:05;8.63;;;2.50;;
27275;SDS011;14772;47.398;8.080;2022-11-23T01:56:06;8.30;;;2.20;;
27275;SDS011;14772;47.398;8.080;2022-11-23T02:01:05;8.63;;;2.37;;
27275;SDS011;14772;47.398;8.080;2022-11-23T02:06:04;10.37;;;2.37;;
27275;SDS011;14772;47.398;8.080;2022-11-23T02:11:04;8.57;;;2.53;;
27275;SDS011;14772;47.398;8.080;2022-11-23T02:16:02;9.57;;;2.57;;
27275;SDS011;14772;47.398;8.080;2022-11-23T02:21:00;7.37;;;2.30;;
27275;SDS011;14772;47.398;8.080;2022-11-23T02:25:59;9.40;;;2.60;;
27275;SDS011;14772;47.398;8.080;2022-11-23T02:30:59;9.33;;;2.50;;
27275;SDS011;14772;47.398;8.080;2022-11-23T02:35:58;9.77;;;2.40;;
27275;SDS011;14772;47.398;8.080;2022-11-23T02:40:56;13.20;;;2.90;;
27275;SDS011;14772;47.398;8.080;2022-11-23T02:45:54;8.33;;;2.40;;
27275;SDS011;14772;47.398;8.080;2022-11-23T02:50:53;9.83;;;2.43;;
27275;SDS011;14772;47.398;8.080;2022-11-23T02:55:50;9.20;;;2.30;;
27275;SDS011;14772;47.398;8.080;2022-11-23T03:00:47;9.90;;;2.23;;
27275;SDS011;14772;47.398;8.080;2022-11-23T03:05:44;8.27;;;2.20;;
27275;SDS011;14772;47.398;8.080;2022-11-23T03:10:41;9.57;;;2.60;;
27275;SDS011;14772;47.398;8.080;2022-11-23T03:15:38;9.40;;;2.20;;
27275;SDS011;14772;47.398;8.080;2022-11-23T03:20:36;7.80;;;2.27;;
27275;SDS011;14772;47.398;8.080;2022-11-23T03:25:33;7.73;;;2.03;;
27275;SDS011;14772;47.398;8.080;2022-11-23T03:30:30;12.20;;;2.40;;
27275;SDS011;14772;47.398;8.080;2022-11-23T03:35:27;7.60;;;2.20;;
27275;SDS011;14772;47.398;8.080;2022-11-23T03:40:24;10.13;;;2.30;;
27275;SDS011;14772;47.398;8.080;2022-11-23T03:45:22;10.47;;;2.30;;
27275;SDS011;14772;47.398;8.080;2022-11-23T03:50:19;9.70;;;2.27;;
27275;SDS011;14772;47.398;8.080;2022-11-23T03:55:16;9.00;;;2.30;;
27275;SDS011;14772;47.398;8.080;2022-11-23T04:00:15;8.80;;;2.30;;
27275;SDS011;14772;47.398;8.080;2022-11-23T04:05:12;8.90;;;2.20;;
27275;SDS011;14772;47.398;8.080;2022-11-23T04:10:09;9.00;;;2.20;;
27275;SDS011;14772;47.398;8.080;2022-11-23T04:15:07;7.73;;;2.30;;
27275;SDS011;14772;47.398;8.080;2022-11-23T04:20:06;13.67;;;2.80;;
27275;SDS011;14772;47.398;8.080;2022-11-23T04:25:04;8.77;;;2.30;;
27275;SDS011;14772;47.398;8.080;2022-11-23T04:30:03;10.57;;;2.60;;
27275;SDS011;14772;47.398;8.080;2022-11-23T04:35:01;10.03;;;2.50;;
27275;SDS011;14772;47.398;8.080;2022-11-23T04:39:58;9.47;;;2.83;;
27275;SDS011;14772;47.398;8.080;2022-11-23T04:44:55;9.20;;;2.50;;
27275;SDS011;14772;47.398;8.080;2022-11-23T04:49:52;9.67;;;2.70;;
27275;SDS011;14772;47.398;8.080;2022-11-23T04:54:49;10.57;;;3.23;;
27275;SDS011;14772;47.398;8.080;2022-11-23T04:59:47;11.37;;;2.80;;
27275;SDS011;14772;47.398;8.080;2022-11-23T05:04:44;8.13;;;2.47;;
27275;SDS011;14772;47.398;8.080;2022-11-23T05:09:41;9.30;;;2.77;;
27275;SDS011;14772;47.398;8.080;2022-11-23T05:14:38;9.20;;;2.53;;
27275;SDS011;14772;47.398;8.080;2022-11-23T05:19:35;9.87;;;2.93;;
27275;SDS011;14772;47.398;8.080;2022-11-23T05:24:32;10.83;;;3.40;;
27275;SDS011;14772;47.398;8.080;2022-11-23T05:29:29;10.80;;;3.20;;
27275;SDS011;14772;47.398;8.080;2022-11-23T05:34:27;14.40;;;2.77;;
27275;SDS011;14772;47.398;8.080;2022-11-23T05:39:24;9.47;;;2.77;;
27275;SDS011;14772;47.398;8.080;2022-11-23T05:44:21;11.57;;;3.50;;
27275;SDS011;14772;47.398;8.080;2022-11-23T05:49:18;13.43;;;3.50;;
27275;SDS011;14772;47.398;8.080;2022-11-23T05:54:15;12.33;;;3.10;;
27275;SDS011;14772;47.398;8.080;2022-11-23T05:59:13;12.77;;;3.43;;
27275;SDS011;14772;47.398;8.080;2022-11-23T06:04:10;11.73;;;3.37;;
27275;SDS011;14772;47.398;8.080;2022-11-23T06:09:07;9.10;;;2.93;;
27275;SDS011;14772;47.398;8.080;2022-11-23T06:14:04;10.67;;;2.90;;
27275;SDS011;14772;47.398;8.080;2022-11-23T06:19:01;14.07;;;3.70;;
27275;SDS011;14772;47.398;8.080;2022-11-23T06:23:58;13.53;;;4.30;;
27275;SDS011;14772;47.398;8.080;2022-11-23T06:28:56;13.20;;;3.60;;
27275;SDS011;14772;47.398;8.080;2022-11-23T06:33:54;12.03;;;3.40;;
27275;SDS011;14772;47.398;8.080;2022-11-23T06:38:52;10.13;;;3.10;;
27275;SDS011;14772;47.398;8.080;2022-11-23T06:43:49;10.80;;;3.60;;
27275;SDS011;14772;47.398;8.080;2022-11-23T06:48:47;15.03;;;3.90;;
27275;SDS011;14772;47.398;8.080;2022-11-23T06:53:44;12.73;;;4.07;;
27275;SDS011;14772;47.398;8.080;2022-11-23T06:58:41;12.03;;;3.93;;
27275;SDS011;14772;47.398;8.080;2022-11-23T07:03:38;13.30;;;3.70;;
27275;SDS011;14772;47.398;8.080;2022-11-23T07:08:36;11.97;;;3.60;;
27275;SDS011;14772;47.398;8.080;2022-11-23T07:13:33;12.07;;;3.50;;
27275;SDS011;14772;47.398;8.080;2022-11-23T07:18:30;12.90;;;3.90;;
27275;SDS011;14772;47.398;8.080;2022-11-23T07:23:27;13.23;;;3.60;;
27275;SDS011;14772;47.398;8.080;2022-11-23T07:28:24;14.20;;;4.10;;
27275;SDS011;14772;47.398;8.080;2022-11-23T07:33:22;16.30;;;4.30;;
27275;SDS011;14772;47.398;8.080;2022-11-23T07:38:19;14.10;;;4.70;;
27275;SDS011;14772;47.398;8.080;2022-11-23T07:43:16;11.33;;;3.90;;
27275;SDS011;14772;47.398;8.080;2022-11-23T07:48:13;13.17;;;3.83;;
27275;SDS011;14772;47.398;8.080;2022-11-23T07:53:10;17.03;;;4.10;;
27275;SDS011;14772;47.398;8.080;2022-11-23T07:58:08;12.13;;;4.27;;
27275;SDS011;14772;47.398;8.080;2022-11-23T08:03:05;12.23;;;4.30;;
27275;SDS011;14772;47.398;8.080;2022-11-23T08:08:05;15.63;;;4.93;;
27275;SDS011;14772;47.398;8.080;2022-11-23T08:13:03;13.97;;;4.50;;
27275;SDS011;14772;47.398;8.080;2022-11-23T08:18:01;13.37;;;4.30;;
27275;SDS011;14772;47.398;8.080;2022-11-23T08:22:59;15.77;;;5.00;;
27275;SDS011;14772;47.398;8.080;2022-11-23T08:27:56;14.53;;;4.60;;
27275;SDS011;14772;47.398;8.080;2022-11-23T08:32:55;14.10;;;5.17;;
27275;SDS011;14772;47.398;8.080;2022-11-23T08:37:52;15.63;;;5.10;;
27275;SDS011;14772;47.398;8.080;2022-11-23T08:42:49;15.80;;;4.70;;
27275;SDS011;14772;47.398;8.080;2022-11-23T08:47:46;13.43;;;4.50;;
27275;SDS011;14772;47.398;8.080;2022-11-23T08:52:43;13.27;;;4.30;;
27275;SDS011;14772;47.398;8.080;2022-11-23T08:57:44;13.07;;;4.43;;
27275;SDS011;14772;47.398;8.080;2022-11-23T09:02:41;11.63;;;4.00;;
27275;SDS011;14772;47.398;8.080;2022-11-23T09:07:39;13.57;;;4.43;;
27275;SDS011;14772;47.398;8.080;2022-11-23T09:12:36;12.30;;;4.20;;
27275;SDS011;14772;47.398;8.080;2022-11-23T09:17:34;11.87;;;3.80;;
27275;SDS011;14772;47.398;8.080;2022-11-23T09:22:31;11.83;;;4.00;;
27275;SDS011;14772;47.398;8.080;2022-11-23T09:27:28;13.27;;;4.00;;
27275;SDS011;14772;47.398;8.080;2022-11-23T09:32:25;12.43;;;3.70;;
27275;SDS011;14772;47.398;8.080;2022-11-23T09:37:22;11.93;;;3.40;;
27275;SDS011;14772;47.398;8.080;2022-11-23T09:42:32;10.83;;;3.50;;
27275;SDS011;14772;47.398;8.080;2022-11-23T10:03:54;13.63;;;3.73;;
27275;SDS011;14772;47.398;8.080;2022-11-23T10:08:58;12.47;;;3.90;;
27275;SDS011;14772;47.398;8.080;2022-11-23T10:14:06;13.37;;;4.10;;
27275;SDS011;14772;47.398;8.080;2022-11-23T10:19:11;12.67;;;4.30;;
27275;SDS011;14772;47.398;8.080;2022-11-23T10:24:14;13.03;;;4.13;;
27275;SDS011;14772;47.398;8.080;2022-11-23T10:29:14;14.03;;;4.30;;
27275;SDS011;14772;47.398;8.080;2022-11-23T10:34:13;12.97;;;4.30;;
27275;SDS011;14772;47.398;8.080;2022-11-23T10:39:16;11.80;;;4.10;;
27275;SDS011;14772;47.398;8.080;2022-11-23T10:44:28;12.60;;;3.90;;
27275;SDS011;14772;47.398;8.080;2022-11-23T10:49:27;14.50;;;3.07;;
27275;SDS011;14772;47.398;8.080;2022-11-23T10:54:27;11.67;;;2.87;;
27275;SDS011;14772;47.398;8.080;2022-11-23T10:59:28;13.73;;;2.73;;
27275;SDS011;14772;47.398;8.080;2022-11-23T11:04:30;10.10;;;2.63;;
27275;SDS011;14772;47.398;8.080;2022-11-23T11:09:27;7.77;;;2.27;;
27275;SDS011;14772;47.398;8.080;2022-11-23T11:14:25;8.87;;;2.37;;
27275;SDS011;14772;47.398;8.080;2022-11-23T11:19:24;8.37;;;2.20;;
27275;SDS011;14772;47.398;8.080;2022-11-23T11:24:26;9.70;;;2.87;;
27275;SDS011;14772;47.398;8.080;2022-11-23T11:29:30;10.47;;;2.73;;
27275;SDS011;14772;47.398;8.080;2022-11-23T11:34:29;10.23;;;2.83;;
27275;SDS011;14772;47.398;8.080;2022-11-23T11:39:31;10.13;;;2.87;;
27275;SDS011;14772;47.398;8.080;2022-11-23T11:44:31;11.20;;;2.93;;
27275;SDS011;14772;47.398;8.080;2022-11-23T11:49:32;9.90;;;3.20;;
27275;SDS011;14772;47.398;8.080;2022-11-23T11:54:33;11.30;;;3.40;;
27275;SDS011;14772;47.398;8.080;2022-11-23T11:59:35;10.43;;;2.97;;
27275;SDS011;14772;47.398;8.080;2022-11-23T12:04:36;10.93;;;3.17;;
27275;SDS011;14772;47.398;8.080;2022-11-23T12:09:37;11.03;;;2.97;;
27275;SDS011;14772;47.398;8.080;2022-11-23T12:14:37;9.63;;;3.07;;
27275;SDS011;14772;47.398;8.080;2022-11-23T12:19:35;11.30;;;3.10;;
27275;SDS011;14772;47.398;8.080;2022-11-23T12:24:48;12.37;;;3.20;;
27275;SDS011;14772;47.398;8.080;2022-11-23T12:30:10;10.13;;;2.70;;
27275;SDS011;14772;47.398;8.080;2022-11-23T12:35:30;8.60;;;2.43;;
27275;SDS011;14772;47.398;8.080;2022-11-23T12:40:45;10.53;;;2.73;;
27275;SDS011;14772;47.398;8.080;2022-11-23T12:46:02;7.37;;;2.27;;
27275;SDS011;14772;47.398;8.080;2022-11-23T12:51:05;6.90;;;2.20;;
27275;SDS011;14772;47.398;8.080;2022-11-23T12:56:10;9.57;;;2.50;;
27275;SDS011;14772;47.398;8.080;2022-11-23T13:01:11;8.43;;;2.27;;
27275;SDS011;14772;47.398;8.080;2022-11-23T13:06:15;8.27;;;2.33;;
27275;SDS011;14772;47.398;8.080;2022-11-23T13:11:35;7.00;;;2.00;;
27275;SDS011;14772;47.398;8.080;2022-11-23T13:22:04;6.90;;;2.10;;
27275;SDS011;14772;47.398;8.080;2022-11-23T13:32:33;9.00;;;2.40;;
27275;SDS011;14772;47.398;8.080;2022-11-23T13:37:33;10.13;;;2.17;;
27275;SDS011;14772;47.398;8.080;2022-11-23T13:42:39;10.83;;;2.50;;
27275;SDS011;14772;47.398;8.080;2022-11-23T13:47:37;6.23;;;2.00;;
27275;SDS011;14772;47.398;8.080;2022-11-23T13:52:35;8.93;;;2.40;;
27275;SDS011;14772;47.398;8.080;2022-11-23T13:57:32;7.67;;;2.10;;
27275;SDS011;14772;47.398;8.080;2022-11-23T14:02:29;6.47;;;1.80;;
27275;SDS011;14772;47.398;8.080;2022-11-23T14:07:28;5.23;;;1.60;;
27275;SDS011;14772;47.398;8.080;2022-11-23T14:12:29;5.07;;;1.70;;
27275;SDS011;14772;47.398;8.080;2022-11-23T14:23:17;6.53;;;1.67;;
27275;SDS011;14772;47.398;8.080;2022-11-23T14:28:30;5.60;;;1.63;;
27275;SDS011;14772;47.398;8.080;2022-11-23T14:33:33;5.97;;;1.90;;
27275;SDS011;14772;47.398;8.080;2022-11-23T14:44:09;10.80;;;2.10;;
27275;SDS011;14772;47.398;8.080;2022-11-23T14:49:11;8.80;;;2.23;;
27275;SDS011;14772;47.398;8.080;2022-11-23T14:54:10;6.80;;;2.20;;
27275;SDS011;14772;47.398;8.080;2022-11-23T14:59:15;8.90;;;2.13;;
27275;SDS011;14772;47.398;8.080;2022-11-23T15:04:21;7.30;;;2.23;;
27275;SDS011;14772;47.398;8.080;2022-11-23T15:09:24;8.87;;;2.30;;
27275;SDS011;14772;47.398;8.080;2022-11-23T15:14:25;9.37;;;2.40;;
27275;SDS011;14772;47.398;8.080;2022-11-23T15:19:26;10.47;;;2.40;;
27275;SDS011;14772;47.398;8.080;2022-11-23T15:24:24;7.80;;;2.47;;
27275;SDS011;14772;47.398;8.080;2022-11-23T15:29:30;9.67;;;2.60;;
27275;SDS011;14772;47.398;8.080;2022-11-23T15:34:28;8.60;;;2.57;;
27275;SDS011;14772;47.398;8.080;2022-11-23T15:39:25;9.60;;;2.87;;
27275;SDS011;14772;47.398;8.080;2022-11-23T15:44:23;9.77;;;2.70;;
27275;SDS011;14772;47.398;8.080;2022-11-23T15:49:23;10.00;;;2.55;;
27275;SDS011;14772;47.398;8.080;2022-11-23T15:54:21;8.57;;;2.60;;
27275;SDS011;14772;47.398;8.080;2022-11-23T15:59:25;8.40;;;2.37;;
27275;SDS011;14772;47.398;8.080;2022-11-23T16:10:10;7.33;;;2.20;;
27275;SDS011;14772;47.398;8.080;2022-11-23T16:21:05;6.70;;;2.13;;
27275;SDS011;14772;47.398;8.080;2022-11-23T16:26:03;9.53;;;2.37;;
27275;SDS011;14772;47.398;8.080;2022-11-23T16:31:01;9.03;;;2.60;;
27275;SDS011;14772;47.398;8.080;2022-11-23T16:35:58;9.40;;;2.60;;
27275;SDS011;14772;47.398;8.080;2022-11-23T16:40:55;12.07;;;3.03;;
27275;SDS011;14772;47.398;8.080;2022-11-23T16:45:53;9.63;;;2.83;;
27275;SDS011;14772;47.398;8.080;2022-11-23T16:50:50;8.63;;;2.20;;
27275;SDS011;14772;47.398;8.080;2022-11-23T16:55:49;8.63;;;2.60;;
27275;SDS011;14772;47.398;8.080;2022-11-23T17:00:47;10.10;;;2.70;;
27275;SDS011;14772;47.398;8.080;2022-11-23T17:05:45;7.90;;;2.60;;
27275;SDS011;14772;47.398;8.080;2022-11-23T17:10:43;9.20;;;2.70;;
27275;SDS011;14772;47.398;8.080;2022-11-23T17:15:40;10.03;;;2.60;;
27275;SDS011;14772;47.398;8.080;2022-11-23T17:20:37;9.50;;;2.90;;
27275;SDS011;14772;47.398;8.080;2022-11-23T17:25:34;12.13;;;2.83;;
27275;SDS011;14772;47.398;8.080;2022-11-23T17:30:33;10.70;;;2.73;;
27275;SDS011;14772;47.398;8.080;2022-11-23T17:35:30;11.87;;;3.17;;
27275;SDS011;14772;47.398;8.080;2022-11-23T17:40:27;9.83;;;3.20;;
27275;SDS011;14772;47.398;8.080;2022-11-23T17:45:25;7.73;;;2.60;;
27275;SDS011;14772;47.398;8.080;2022-11-23T17:50:22;10.57;;;3.40;;
27275;SDS011;14772;47.398;8.080;2022-11-23T17:55:19;9.07;;;2.90;;
27275;SDS011;14772;47.398;8.080;2022-11-23T18:00:17;8.90;;;2.90;;
27275;SDS011;14772;47.398;8.080;2022-11-23T18:05:16;8.70;;;2.60;;
27275;SDS011;14772;47.398;8.080;2022-11-23T18:10:14;9.33;;;2.60;;
27275;SDS011;14772;47.398;8.080;2022-11-23T18:15:11;6.57;;;2.20;;
27275;SDS011;14772;47.398;8.080;2022-11-23T18:20:10;6.50;;;2.27;;
27275;SDS011;14772;47.398;8.080;2022-11-23T18:25:08;7.10;;;2.50;;
27275;SDS011;14772;47.398;8.080;2022-11-23T18:30:06;8.70;;;2.60;;
27275;SDS011;14772;47.398;8.080;2022-11-23T18:35:05;8.27;;;2.60;;
27275;SDS011;14772;47.398;8.080;2022-11-23T18:40:04;7.87;;;2.80;;
27275;SDS011;14772;47.398;8.080;2022-11-23T18:45:03;9.30;;;2.87;;
27275;SDS011;14772;47.398;8.080;2022-11-23T18:50:01;9.33;;;2.83;;
27275;SDS011;14772;47.398;8.080;2022-11-23T18:54:59;10.53;;;2.83;;
27275;SDS011;14772;47.398;8.080;2022-11-23T18:59:56;10.03;;;3.40;;
27275;SDS011;14772;47.398;8.080;2022-11-23T19:04:53;9.70;;;3.13;;
27275;SDS011;14772;47.398;8.080;2022-11-23T19:09:51;10.43;;;3.47;;
27275;SDS011;14772;47.398;8.080;2022-11-23T19:14:48;10.53;;;3.17;;
27275;SDS011;14772;47.398;8.080;2022-11-23T19:19:45;10.00;;;3.33;;
27275;SDS011;14772;47.398;8.080;2022-11-23T19:24:42;9.40;;;3.23;;
27275;SDS011;14772;47.398;8.080;2022-11-23T19:29:39;14.77;;;4.20;;
27275;SDS011;14772;47.398;8.080;2022-11-23T19:34:36;11.27;;;3.43;;
27275;SDS011;14772;47.398;8.080;2022-11-23T19:39:34;10.07;;;3.40;;
27275;SDS011;14772;47.398;8.080;2022-11-23T19:44:31;10.47;;;3.50;;
27275;SDS011;14772;47.398;8.080;2022-11-23T19:49:28;9.87;;;3.50;;
27275;SDS011;14772;47.398;8.080;2022-11-23T19:54:25;9.97;;;3.70;;
27275;SDS011;14772;47.398;8.080;2022-11-23T19:59:23;13.40;;;4.20;;
27275;SDS011;14772;47.398;8.080;2022-11-23T20:04:20;12.13;;;4.23;;
27275;SDS011;14772;47.398;8.080;2022-11-23T20:09:17;11.80;;;4.57;;
27275;SDS011;14772;47.398;8.080;2022-11-23T20:14:15;12.20;;;4.20;;
27275;SDS011;14772;47.398;8.080;2022-11-23T20:19:12;14.57;;;5.30;;
27275;SDS011;14772;47.398;8.080;2022-11-23T20:24:10;15.10;;;5.73;;
27275;SDS011;14772;47.398;8.080;2022-11-23T20:29:08;12.97;;;5.13;;
27275;SDS011;14772;47.398;8.080;2022-11-23T20:34:06;13.43;;;5.20;;
27275;SDS011;14772;47.398;8.080;2022-11-23T20:39:04;12.20;;;4.47;;
27275;SDS011;14772;47.398;8.080;2022-11-23T20:44:03;12.13;;;4.83;;
27275;SDS011;14772;47.398;8.080;2022-11-23T20:49:02;13.20;;;4.60;;
27275;SDS011;14772;47.398;8.080;2022-11-23T20:53:59;11.53;;;3.93;;
27275;SDS011;14772;47.398;8.080;2022-11-23T20:58:56;7.93;;;2.47;;
27275;SDS011;14772;47.398;8.080;2022-11-23T21:03:54;7.27;;;2.00;;
27275;SDS011;14772;47.398;8.080;2022-11-23T21:08:53;6.47;;;1.93;;
27275;SDS011;14772;47.398;8.080;2022-11-23T21:13:50;6.57;;;1.90;;
27275;SDS011;14772;47.398;8.080;2022-11-23T21:18:47;6.77;;;2.20;;
27275;SDS011;14772;47.398;8.080;2022-11-23T21:23:47;7.30;;;2.10;;
27275;SDS011;14772;47.398;8.080;2022-11-23T21:28:44;8.63;;;2.20;;
27275;SDS011;14772;47.398;8.080;2022-11-23T21:33:41;8.77;;;2.20;;
27275;SDS011;14772;47.398;8.080;2022-11-23T21:38:39;9.47;;;2.60;;
27275;SDS011;14772;47.398;8.080;2022-11-23T21:43:36;8.97;;;2.70;;
27275;SDS011;14772;47.398;8.080;2022-11-23T21:48:34;8.23;;;2.50;;
27275;SDS011;14772;47.398;8.080;2022-11-23T21:53:32;9.63;;;3.57;;
27275;SDS011;14772;47.398;8.080;2022-11-23T21:58:29;7.70;;;2.43;;
27275;SDS011;14772;47.398;8.080;2022-11-23T22:03:27;10.17;;;2.93;;
27275;SDS011;14772;47.398;8.080;2022-11-23T22:08:24;9.83;;;2.60;;
27275;SDS011;14772;47.398;8.080;2022-11-23T22:13:21;8.73;;;2.40;;
27275;SDS011;14772;47.398;8.080;2022-11-23T22:18:18;8.10;;;2.60;;
27275;SDS011;14772;47.398;8.080;2022-11-23T22:23:16;8.20;;;2.57;;
27275;SDS011;14772;47.398;8.080;2022-11-23T22:28:13;9.30;;;2.70;;
27275;SDS011;14772;47.398;8.080;2022-11-23T22:33:10;7.37;;;2.53;;
27275;SDS011;14772;47.398;8.080;2022-11-23T22:38:07;6.97;;;2.20;;
27275;SDS011;14772;47.398;8.080;2022-11-23T22:43:04;6.27;;;2.40;;
27275;SDS011;14772;47.398;8.080;2022-11-23T22:48:02;7.30;;;2.33;;
27275;SDS011;14772;47.398;8.080;2022-11-23T22:52:59;7.03;;;2.20;;
27275;SDS011;14772;47.398;8.080;2022-11-23T22:57:57;7.97;;;2.37;;
27275;SDS011;14772;47.398;8.080;2022-11-23T23:02:54;7.40;;;2.60;;
27275;SDS011;14772;47.398;8.080;2022-11-23T23:07:51;9.10;;;3.00;;
27275;SDS011;14772;47.398;8.080;2022-11-23T23:12:50;10.10;;;3.10;;
27275;SDS011;14772;47.398;8.080;2022-11-23T23:17:47;9.27;;;3.10;;
27275;SDS011;14772;47.398;8.080;2022-11-23T23:22:44;9.33;;;2.90;;
27275;SDS011;14772;47.398;8.080;2022-11-23T23:27:42;10.23;;;3.13;;
27275;SDS011;14772;47.398;8.080;2022-11-23T23:32:39;10.30;;;3.10;;
27275;SDS011;14772;47.398;8.080;2022-11-23T23:37:36;9.57;;;3.23;;
27275;SDS011;14772;47.398;8.080;2022-11-23T23:42:34;10.43;;;3.10;;
27275;SDS011;14772;47.398;8.080;2022-11-23T23:47:31;9.83;;;3.40;;
27275;SDS011;14772;47.398;8.080;2022-11-23T23:52:28;10.67;;;3.57;;
27275;SDS011;14772;47.398;8.080;2022-11-23T23:57:25;10.57;;;3.10;;
